sensor_id;sensor_type;location;lat;lon;timestamp;P1;durP1;ratioP1;P2;durP2;ratioP2
23434;SDS011;11890;45.380;11.028;2024-02-15T00:00:02;26.13;;;16.08;;
23434;SDS011;11890;45.380;11.028;2024-02-15T00:02:30;26.52;;;15.68;;
23434;SDS011;11890;45.380;11.028;2024-02-15T00:04:58;23.02;;;15.07;;
23434;SDS011;11890;45.380;11.028;2024-02-15T00:07:26;21.35;;;13.90;;
23434;SDS011;11890;45.380;11.028;2024-02-15T00:09:54;26.40;;;15.25;;
23434;SDS011;11890;45.380;11.028;2024-02-15T00:12:22;25.42;;;15.40;;
23434;SDS011;11890;45.380;11.028;2024-02-15T00:14:49;31.35;;;17.40;;
23434;SDS011;11890;45.380;11.028;2024-02-15T00:17:17;36.70;;;17.88;;
23434;SDS011;11890;45.380;11.028;2024-02-15T00:19:45;33.70;;;18.92;;
23434;SDS011;11890;45.380;11.028;2024-02-15T00:22:13;36.60;;;20.40;;
23434;SDS011;11890;45.380;11.028;2024-02-15T00:24:42;29.73;;;18.20;;
23434;SDS011;11890;45.380;11.028;2024-02-15T00:27:10;32.78;;;18.60;;
23434;SDS011;11890;45.380;11.028;2024-02-15T00:29:38;33.22;;;19.20;;
23434;SDS011;11890;45.380;11.028;2024-02-15T00:32:07;39.50;;;22.23;;
23434;SDS011;11890;45.380;11.028;2024-02-15T00:34:38;39.45;;;21.85;;
23434;SDS011;11890;45.380;11.028;2024-02-15T00:37:06;27.08;;;18.23;;
23434;SDS011;11890;45.380;11.028;2024-02-15T00:39:34;29.35;;;18.58;;
23434;SDS011;11890;45.380;11.028;2024-02-15T00:42:02;30.42;;;19.33;;
23434;SDS011;11890;45.380;11.028;2024-02-15T00:44:30;36.22;;;21.02;;
23434;SDS011;11890;45.380;11.028;2024-02-15T00:46:58;28.52;;;18.75;;
23434;SDS011;11890;45.380;11.028;2024-02-15T00:49:25;29.85;;;20.38;;
23434;SDS011;11890;45.380;11.028;2024-02-15T00:51:55;30.20;;;19.05;;
23434;SDS011;11890;45.380;11.028;2024-02-15T00:54:22;39.08;;;22.17;;
23434;SDS011;11890;45.380;11.028;2024-02-15T00:56:50;36.15;;;22.50;;
23434;SDS011;11890;45.380;11.028;2024-02-15T00:59:18;38.45;;;21.95;;
23434;SDS011;11890;45.380;11.028;2024-02-15T01:01:46;41.35;;;22.50;;
23434;SDS011;11890;45.380;11.028;2024-02-15T01:04:14;34.00;;;21.00;;
23434;SDS011;11890;45.380;11.028;2024-02-15T01:06:42;36.08;;;21.13;;
23434;SDS011;11890;45.380;11.028;2024-02-15T01:09:10;36.75;;;20.95;;
23434;SDS011;11890;45.380;11.028;2024-02-15T01:11:39;31.92;;;21.88;;
23434;SDS011;11890;45.380;11.028;2024-02-15T01:14:07;33.33;;;20.08;;
23434;SDS011;11890;45.380;11.028;2024-02-15T01:16:36;39.38;;;21.38;;
23434;SDS011;11890;45.380;11.028;2024-02-15T01:19:04;34.22;;;20.75;;
23434;SDS011;11890;45.380;11.028;2024-02-15T01:21:32;45.40;;;25.58;;
23434;SDS011;11890;45.380;11.028;2024-02-15T01:24:00;46.83;;;26.50;;
23434;SDS011;11890;45.380;11.028;2024-02-15T01:26:27;35.72;;;24.23;;
23434;SDS011;11890;45.380;11.028;2024-02-15T01:28:56;39.58;;;23.25;;
23434;SDS011;11890;45.380;11.028;2024-02-15T01:31:24;38.03;;;23.77;;
23434;SDS011;11890;45.380;11.028;2024-02-15T01:33:51;34.85;;;22.58;;
23434;SDS011;11890;45.380;11.028;2024-02-15T01:36:19;36.25;;;20.70;;
23434;SDS011;11890;45.380;11.028;2024-02-15T01:38:47;36.72;;;19.95;;
23434;SDS011;11890;45.380;11.028;2024-02-15T01:41:14;37.00;;;20.75;;
23434;SDS011;11890;45.380;11.028;2024-02-15T01:43:45;32.33;;;20.98;;
23434;SDS011;11890;45.380;11.028;2024-02-15T01:46:14;37.00;;;22.40;;
23434;SDS011;11890;45.380;11.028;2024-02-15T01:48:42;34.78;;;22.08;;
23434;SDS011;11890;45.380;11.028;2024-02-15T01:51:11;32.17;;;20.92;;
23434;SDS011;11890;45.380;11.028;2024-02-15T01:53:40;33.38;;;21.50;;
23434;SDS011;11890;45.380;11.028;2024-02-15T01:56:08;34.20;;;21.17;;
23434;SDS011;11890;45.380;11.028;2024-02-15T01:58:38;38.38;;;22.90;;
23434;SDS011;11890;45.380;11.028;2024-02-15T02:01:07;36.20;;;22.15;;
23434;SDS011;11890;45.380;11.028;2024-02-15T02:03:34;33.70;;;20.95;;
23434;SDS011;11890;45.380;11.028;2024-02-15T02:06:02;33.58;;;21.42;;
23434;SDS011;11890;45.380;11.028;2024-02-15T02:08:30;44.03;;;22.60;;
23434;SDS011;11890;45.380;11.028;2024-02-15T02:10:58;33.45;;;21.67;;
23434;SDS011;11890;45.380;11.028;2024-02-15T02:13:28;38.03;;;23.65;;
23434;SDS011;11890;45.380;11.028;2024-02-15T02:15:57;41.97;;;23.63;;
23434;SDS011;11890;45.380;11.028;2024-02-15T02:18:26;40.95;;;24.33;;
23434;SDS011;11890;45.380;11.028;2024-02-15T02:20:54;36.08;;;21.33;;
23434;SDS011;11890;45.380;11.028;2024-02-15T02:23:23;36.83;;;20.90;;
23434;SDS011;11890;45.380;11.028;2024-02-15T02:25:54;34.00;;;21.63;;
23434;SDS011;11890;45.380;11.028;2024-02-15T02:28:22;36.65;;;21.65;;
23434;SDS011;11890;45.380;11.028;2024-02-15T02:30:49;39.17;;;22.17;;
23434;SDS011;11890;45.380;11.028;2024-02-15T02:33:17;34.60;;;20.35;;
23434;SDS011;11890;45.380;11.028;2024-02-15T02:35:47;40.60;;;22.15;;
23434;SDS011;11890;45.380;11.028;2024-02-15T02:38:15;35.88;;;23.20;;
23434;SDS011;11890;45.380;11.028;2024-02-15T02:40:43;40.85;;;23.05;;
23434;SDS011;11890;45.380;11.028;2024-02-15T02:43:11;39.47;;;22.67;;
23434;SDS011;11890;45.380;11.028;2024-02-15T02:45:39;39.22;;;23.70;;
23434;SDS011;11890;45.380;11.028;2024-02-15T02:48:08;39.72;;;22.45;;
23434;SDS011;11890;45.380;11.028;2024-02-15T02:50:36;35.72;;;23.05;;
23434;SDS011;11890;45.380;11.028;2024-02-15T02:53:04;38.92;;;22.63;;
23434;SDS011;11890;45.380;11.028;2024-02-15T02:55:32;38.67;;;22.05;;
23434;SDS011;11890;45.380;11.028;2024-02-15T02:58:00;26.65;;;18.25;;
23434;SDS011;11890;45.380;11.028;2024-02-15T03:00:27;32.83;;;21.25;;
23434;SDS011;11890;45.380;11.028;2024-02-15T03:02:55;31.85;;;20.15;;
23434;SDS011;11890;45.380;11.028;2024-02-15T03:05:23;32.53;;;21.45;;
23434;SDS011;11890;45.380;11.028;2024-02-15T03:07:51;36.35;;;21.70;;
23434;SDS011;11890;45.380;11.028;2024-02-15T03:10:19;39.67;;;23.13;;
23434;SDS011;11890;45.380;11.028;2024-02-15T03:12:46;37.38;;;23.13;;
23434;SDS011;11890;45.380;11.028;2024-02-15T03:15:15;37.90;;;23.10;;
23434;SDS011;11890;45.380;11.028;2024-02-15T03:17:46;37.65;;;23.52;;
23434;SDS011;11890;45.380;11.028;2024-02-15T03:20:15;44.28;;;22.42;;
23434;SDS011;11890;45.380;11.028;2024-02-15T03:22:55;42.88;;;23.23;;
23434;SDS011;11890;45.380;11.028;2024-02-15T03:25:23;34.03;;;21.10;;
23434;SDS011;11890;45.380;11.028;2024-02-15T03:27:52;33.95;;;20.85;;
23434;SDS011;11890;45.380;11.028;2024-02-15T03:30:20;32.83;;;20.70;;
23434;SDS011;11890;45.380;11.028;2024-02-15T03:32:48;39.42;;;24.15;;
23434;SDS011;11890;45.380;11.028;2024-02-15T03:35:18;30.70;;;20.85;;
23434;SDS011;11890;45.380;11.028;2024-02-15T03:37:46;33.80;;;21.98;;
23434;SDS011;11890;45.380;11.028;2024-02-15T03:40:18;32.78;;;21.10;;
23434;SDS011;11890;45.380;11.028;2024-02-15T03:42:46;38.00;;;22.13;;
23434;SDS011;11890;45.380;11.028;2024-02-15T03:45:13;34.30;;;21.08;;
23434;SDS011;11890;45.380;11.028;2024-02-15T03:47:41;37.08;;;22.05;;
23434;SDS011;11890;45.380;11.028;2024-02-15T03:50:09;39.35;;;22.58;;
23434;SDS011;11890;45.380;11.028;2024-02-15T03:52:37;36.65;;;21.77;;
23434;SDS011;11890;45.380;11.028;2024-02-15T03:55:05;39.47;;;23.50;;
23434;SDS011;11890;45.380;11.028;2024-02-15T03:57:35;38.38;;;22.95;;
23434;SDS011;11890;45.380;11.028;2024-02-15T04:00:05;37.70;;;22.23;;
23434;SDS011;11890;45.380;11.028;2024-02-15T04:02:37;34.97;;;21.52;;
23434;SDS011;11890;45.380;11.028;2024-02-15T04:05:08;36.50;;;22.08;;
23434;SDS011;11890;45.380;11.028;2024-02-15T04:07:38;34.42;;;21.42;;
23434;SDS011;11890;45.380;11.028;2024-02-15T04:10:06;36.60;;;20.13;;
23434;SDS011;11890;45.380;11.028;2024-02-15T04:12:35;33.72;;;20.02;;
23434;SDS011;11890;45.380;11.028;2024-02-15T04:15:03;29.55;;;19.30;;
23434;SDS011;11890;45.380;11.028;2024-02-15T04:17:40;36.67;;;22.90;;
23434;SDS011;11890;45.380;11.028;2024-02-15T04:20:09;39.10;;;23.17;;
23434;SDS011;11890;45.380;11.028;2024-02-15T04:22:39;31.50;;;21.38;;
23434;SDS011;11890;45.380;11.028;2024-02-15T04:25:09;34.67;;;21.77;;
23434;SDS011;11890;45.380;11.028;2024-02-15T04:27:46;35.38;;;21.25;;
23434;SDS011;11890;45.380;11.028;2024-02-15T04:30:14;36.45;;;21.30;;
23434;SDS011;11890;45.380;11.028;2024-02-15T04:32:46;36.97;;;21.20;;
23434;SDS011;11890;45.380;11.028;2024-02-15T04:35:14;37.30;;;21.80;;
23434;SDS011;11890;45.380;11.028;2024-02-15T04:37:42;37.08;;;20.27;;
23434;SDS011;11890;45.380;11.028;2024-02-15T04:40:10;32.45;;;20.23;;
23434;SDS011;11890;45.380;11.028;2024-02-15T04:42:40;35.35;;;19.95;;
23434;SDS011;11890;45.380;11.028;2024-02-15T04:45:11;29.58;;;20.27;;
23434;SDS011;11890;45.380;11.028;2024-02-15T04:47:41;35.88;;;21.40;;
23434;SDS011;11890;45.380;11.028;2024-02-15T04:50:10;35.42;;;21.80;;
23434;SDS011;11890;45.380;11.028;2024-02-15T04:52:38;36.00;;;22.77;;
23434;SDS011;11890;45.380;11.028;2024-02-15T04:55:05;37.05;;;22.15;;
23434;SDS011;11890;45.380;11.028;2024-02-15T04:57:33;37.63;;;21.98;;
23434;SDS011;11890;45.380;11.028;2024-02-15T05:00:04;32.30;;;20.45;;
23434;SDS011;11890;45.380;11.028;2024-02-15T05:02:40;30.98;;;21.00;;
23434;SDS011;11890;45.380;11.028;2024-02-15T05:05:10;36.60;;;21.55;;
23434;SDS011;11890;45.380;11.028;2024-02-15T05:07:40;39.75;;;22.08;;
23434;SDS011;11890;45.380;11.028;2024-02-15T05:10:10;34.80;;;23.00;;
23434;SDS011;11890;45.380;11.028;2024-02-15T05:12:37;36.88;;;22.38;;
23434;SDS011;11890;45.380;11.028;2024-02-15T05:15:07;36.17;;;20.75;;
23434;SDS011;11890;45.380;11.028;2024-02-15T05:17:37;34.47;;;21.08;;
23434;SDS011;11890;45.380;11.028;2024-02-15T05:20:08;33.08;;;20.30;;
23434;SDS011;11890;45.380;11.028;2024-02-15T05:25:16;35.03;;;20.33;;
23434;SDS011;11890;45.380;11.028;2024-02-15T05:27:50;37.00;;;20.05;;
23434;SDS011;11890;45.380;11.028;2024-02-15T05:30:21;33.05;;;19.80;;
23434;SDS011;11890;45.380;11.028;2024-02-15T05:32:49;32.88;;;21.90;;
23434;SDS011;11890;45.380;11.028;2024-02-15T05:35:17;36.05;;;21.85;;
23434;SDS011;11890;45.380;11.028;2024-02-15T05:37:45;39.47;;;22.23;;
23434;SDS011;11890;45.380;11.028;2024-02-15T05:40:13;32.85;;;20.30;;
23434;SDS011;11890;45.380;11.028;2024-02-15T05:42:44;37.70;;;22.42;;
23434;SDS011;11890;45.380;11.028;2024-02-15T05:47:53;36.38;;;21.52;;
23434;SDS011;11890;45.380;11.028;2024-02-15T05:50:21;33.53;;;20.80;;
23434;SDS011;11890;45.380;11.028;2024-02-15T05:52:51;42.30;;;22.77;;
23434;SDS011;11890;45.380;11.028;2024-02-15T05:55:21;42.28;;;23.00;;
23434;SDS011;11890;45.380;11.028;2024-02-15T05:57:49;39.85;;;23.73;;
23434;SDS011;11890;45.380;11.028;2024-02-15T06:00:17;44.58;;;22.90;;
23434;SDS011;11890;45.380;11.028;2024-02-15T06:02:49;37.03;;;22.10;;
23434;SDS011;11890;45.380;11.028;2024-02-15T06:05:18;40.22;;;22.30;;
23434;SDS011;11890;45.380;11.028;2024-02-15T06:07:46;34.60;;;22.17;;
23434;SDS011;11890;45.380;11.028;2024-02-15T06:10:15;35.28;;;22.90;;
23434;SDS011;11890;45.380;11.028;2024-02-15T06:12:43;34.75;;;21.48;;
23434;SDS011;11890;45.380;11.028;2024-02-15T06:15:11;39.17;;;22.45;;
23434;SDS011;11890;45.380;11.028;2024-02-15T06:17:43;42.00;;;22.43;;
23434;SDS011;11890;45.380;11.028;2024-02-15T06:20:12;40.42;;;21.30;;
23434;SDS011;11890;45.380;11.028;2024-02-15T06:22:41;35.88;;;22.10;;
23434;SDS011;11890;45.380;11.028;2024-02-15T06:25:09;35.65;;;21.15;;
23434;SDS011;11890;45.380;11.028;2024-02-15T06:27:37;34.30;;;21.10;;
23434;SDS011;11890;45.380;11.028;2024-02-15T06:30:08;36.30;;;22.00;;
23434;SDS011;11890;45.380;11.028;2024-02-15T06:32:56;39.42;;;24.95;;
23434;SDS011;11890;45.380;11.028;2024-02-15T06:35:43;46.35;;;24.08;;
23434;SDS011;11890;45.380;11.028;2024-02-15T06:38:30;43.40;;;24.90;;
23434;SDS011;11890;45.380;11.028;2024-02-15T06:41:16;40.72;;;23.42;;
23434;SDS011;11890;45.380;11.028;2024-02-15T06:43:48;48.15;;;24.58;;
23434;SDS011;11890;45.380;11.028;2024-02-15T06:46:15;39.22;;;23.05;;
23434;SDS011;11890;45.380;11.028;2024-02-15T06:48:45;42.25;;;24.23;;
23434;SDS011;11890;45.380;11.028;2024-02-15T06:51:14;39.55;;;24.35;;
23434;SDS011;11890;45.380;11.028;2024-02-15T06:53:43;49.53;;;24.08;;
23434;SDS011;11890;45.380;11.028;2024-02-15T06:56:11;42.15;;;25.38;;
23434;SDS011;11890;45.380;11.028;2024-02-15T06:58:40;40.75;;;23.92;;
23434;SDS011;11890;45.380;11.028;2024-02-15T07:01:08;45.92;;;24.40;;
23434;SDS011;11890;45.380;11.028;2024-02-15T07:03:36;45.50;;;23.73;;
23434;SDS011;11890;45.380;11.028;2024-02-15T07:06:06;35.90;;;22.35;;
23434;SDS011;11890;45.380;11.028;2024-02-15T07:08:34;46.40;;;23.60;;
23434;SDS011;11890;45.380;11.028;2024-02-15T07:11:02;46.08;;;26.23;;
23434;SDS011;11890;45.380;11.028;2024-02-15T07:13:31;40.50;;;23.38;;
23434;SDS011;11890;45.380;11.028;2024-02-15T07:15:58;39.65;;;23.95;;
23434;SDS011;11890;45.380;11.028;2024-02-15T07:18:26;42.78;;;23.92;;
23434;SDS011;11890;45.380;11.028;2024-02-15T07:20:55;40.28;;;23.77;;
23434;SDS011;11890;45.380;11.028;2024-02-15T07:23:28;45.65;;;26.98;;
23434;SDS011;11890;45.380;11.028;2024-02-15T07:25:56;43.28;;;25.00;;
23434;SDS011;11890;45.380;11.028;2024-02-15T07:28:23;49.17;;;27.27;;
23434;SDS011;11890;45.380;11.028;2024-02-15T07:30:52;51.47;;;26.83;;
23434;SDS011;11890;45.380;11.028;2024-02-15T07:33:22;48.35;;;28.17;;
23434;SDS011;11890;45.380;11.028;2024-02-15T07:35:50;55.28;;;28.10;;
23434;SDS011;11890;45.380;11.028;2024-02-15T07:38:19;50.08;;;27.73;;
23434;SDS011;11890;45.380;11.028;2024-02-15T07:40:49;53.70;;;29.08;;
23434;SDS011;11890;45.380;11.028;2024-02-15T07:43:17;53.25;;;28.55;;
23434;SDS011;11890;45.380;11.028;2024-02-15T07:45:45;48.58;;;27.95;;
23434;SDS011;11890;45.380;11.028;2024-02-15T07:48:16;45.33;;;26.88;;
23434;SDS011;11890;45.380;11.028;2024-02-15T07:50:44;52.63;;;27.83;;
23434;SDS011;11890;45.380;11.028;2024-02-15T07:53:12;51.63;;;27.58;;
23434;SDS011;11890;45.380;11.028;2024-02-15T07:55:40;49.10;;;27.17;;
23434;SDS011;11890;45.380;11.028;2024-02-15T07:58:09;45.47;;;25.23;;
23434;SDS011;11890;45.380;11.028;2024-02-15T08:00:36;41.08;;;26.00;;
23434;SDS011;11890;45.380;11.028;2024-02-15T08:03:05;43.85;;;26.08;;
23434;SDS011;11890;45.380;11.028;2024-02-15T08:05:34;42.50;;;26.10;;
23434;SDS011;11890;45.380;11.028;2024-02-15T08:08:03;44.60;;;27.38;;
23434;SDS011;11890;45.380;11.028;2024-02-15T08:10:31;42.90;;;27.67;;
23434;SDS011;11890;45.380;11.028;2024-02-15T08:13:00;50.33;;;30.85;;
23434;SDS011;11890;45.380;11.028;2024-02-15T08:15:28;52.63;;;28.88;;
23434;SDS011;11890;45.380;11.028;2024-02-15T08:17:56;50.40;;;30.02;;
23434;SDS011;11890;45.380;11.028;2024-02-15T08:20:25;46.45;;;28.23;;
23434;SDS011;11890;45.380;11.028;2024-02-15T08:22:58;50.80;;;30.15;;
23434;SDS011;11890;45.380;11.028;2024-02-15T08:25:25;47.63;;;29.60;;
23434;SDS011;11890;45.380;11.028;2024-02-15T08:27:53;47.15;;;29.88;;
23434;SDS011;11890;45.380;11.028;2024-02-15T08:30:21;48.92;;;31.85;;
23434;SDS011;11890;45.380;11.028;2024-02-15T08:32:51;52.38;;;32.72;;
23434;SDS011;11890;45.380;11.028;2024-02-15T08:35:22;50.80;;;32.35;;
23434;SDS011;11890;45.380;11.028;2024-02-15T08:37:50;56.67;;;35.50;;
23434;SDS011;11890;45.380;11.028;2024-02-15T08:40:19;58.13;;;35.17;;
23434;SDS011;11890;45.380;11.028;2024-02-15T08:42:52;59.60;;;36.40;;
23434;SDS011;11890;45.380;11.028;2024-02-15T08:45:20;64.53;;;38.90;;
23434;SDS011;11890;45.380;11.028;2024-02-15T08:47:49;58.63;;;36.83;;
23434;SDS011;11890;45.380;11.028;2024-02-15T08:50:19;63.83;;;38.75;;
23434;SDS011;11890;45.380;11.028;2024-02-15T08:52:50;64.85;;;37.35;;
23434;SDS011;11890;45.380;11.028;2024-02-15T08:55:18;55.15;;;35.75;;
23434;SDS011;11890;45.380;11.028;2024-02-15T08:57:50;59.58;;;36.35;;
23434;SDS011;11890;45.380;11.028;2024-02-15T09:00:18;54.53;;;36.08;;
23434;SDS011;11890;45.380;11.028;2024-02-15T09:02:46;57.22;;;36.83;;
23434;SDS011;11890;45.380;11.028;2024-02-15T09:05:15;63.15;;;38.95;;
23434;SDS011;11890;45.380;11.028;2024-02-15T09:07:45;60.30;;;37.90;;
23434;SDS011;11890;45.380;11.028;2024-02-15T09:10:17;42.77;;;27.77;;
23434;SDS011;11890;45.380;11.028;2024-02-15T09:12:46;60.35;;;37.53;;
23434;SDS011;11890;45.380;11.028;2024-02-15T09:15:15;58.75;;;35.90;;
23434;SDS011;11890;45.380;11.028;2024-02-15T09:17:44;54.95;;;37.20;;
23434;SDS011;11890;45.380;11.028;2024-02-15T09:20:16;53.45;;;36.15;;
23434;SDS011;11890;45.380;11.028;2024-02-15T09:22:48;56.47;;;37.13;;
23434;SDS011;11890;45.380;11.028;2024-02-15T09:25:19;54.20;;;36.05;;
23434;SDS011;11890;45.380;11.028;2024-02-15T09:27:46;56.50;;;38.28;;
23434;SDS011;11890;45.380;11.028;2024-02-15T09:30:14;55.35;;;36.65;;
23434;SDS011;11890;45.380;11.028;2024-02-15T09:32:43;60.30;;;36.92;;
23434;SDS011;11890;45.380;11.028;2024-02-15T09:35:12;58.80;;;38.58;;
23434;SDS011;11890;45.380;11.028;2024-02-15T09:37:47;57.67;;;37.58;;
23434;SDS011;11890;45.380;11.028;2024-02-15T09:40:19;55.20;;;37.70;;
23434;SDS011;11890;45.380;11.028;2024-02-15T09:42:47;60.63;;;38.45;;
23434;SDS011;11890;45.380;11.028;2024-02-15T09:45:15;61.83;;;39.47;;
23434;SDS011;11890;45.380;11.028;2024-02-15T09:47:44;63.28;;;39.70;;
23434;SDS011;11890;45.380;11.028;2024-02-15T09:50:13;59.03;;;37.83;;
23434;SDS011;11890;45.380;11.028;2024-02-15T09:52:45;60.28;;;38.58;;
23434;SDS011;11890;45.380;11.028;2024-02-15T09:55:13;54.65;;;37.05;;
23434;SDS011;11890;45.380;11.028;2024-02-15T09:57:42;54.47;;;36.80;;
23434;SDS011;11890;45.380;11.028;2024-02-15T10:00:11;53.42;;;36.50;;
23434;SDS011;11890;45.380;11.028;2024-02-15T10:02:41;54.55;;;36.45;;
23434;SDS011;11890;45.380;11.028;2024-02-15T10:05:11;55.47;;;36.20;;
23434;SDS011;11890;45.380;11.028;2024-02-15T10:07:43;56.50;;;36.67;;
23434;SDS011;11890;45.380;11.028;2024-02-15T10:12:46;55.70;;;36.40;;
23434;SDS011;11890;45.380;11.028;2024-02-15T10:18:01;53.17;;;35.33;;
23434;SDS011;11890;45.380;11.028;2024-02-15T10:20:29;57.30;;;37.33;;
23434;SDS011;11890;45.380;11.028;2024-02-15T10:25:28;56.20;;;38.50;;
23434;SDS011;11890;45.380;11.028;2024-02-15T10:28:03;58.08;;;36.53;;
23434;SDS011;11890;45.380;11.028;2024-02-15T10:30:35;53.47;;;37.30;;
23434;SDS011;11890;45.380;11.028;2024-02-15T10:33:03;59.25;;;38.22;;
23434;SDS011;11890;45.380;11.028;2024-02-15T10:35:31;50.80;;;36.38;;
23434;SDS011;11890;45.380;11.028;2024-02-15T10:38:08;53.45;;;39.17;;
23434;SDS011;11890;45.380;11.028;2024-02-15T10:40:37;55.83;;;38.65;;
23434;SDS011;11890;45.380;11.028;2024-02-15T10:43:07;54.67;;;39.22;;
23434;SDS011;11890;45.380;11.028;2024-02-15T10:45:35;54.67;;;36.95;;
23434;SDS011;11890;45.380;11.028;2024-02-15T10:48:09;58.47;;;39.70;;
23434;SDS011;11890;45.380;11.028;2024-02-15T10:50:41;61.58;;;39.53;;
23434;SDS011;11890;45.380;11.028;2024-02-15T10:53:23;60.05;;;40.03;;
23434;SDS011;11890;45.380;11.028;2024-02-15T10:58:33;55.17;;;40.20;;
23434;SDS011;11890;45.380;11.028;2024-02-15T11:01:02;59.65;;;42.05;;
23434;SDS011;11890;45.380;11.028;2024-02-15T11:03:35;57.90;;;39.90;;
23434;SDS011;11890;45.380;11.028;2024-02-15T11:06:04;62.47;;;42.73;;
23434;SDS011;11890;45.380;11.028;2024-02-15T11:08:34;63.47;;;43.10;;
23434;SDS011;11890;45.380;11.028;2024-02-15T11:11:02;59.67;;;42.25;;
23434;SDS011;11890;45.380;11.028;2024-02-15T11:13:31;61.28;;;41.25;;
23434;SDS011;11890;45.380;11.028;2024-02-15T11:16:00;57.72;;;43.45;;
23434;SDS011;11890;45.380;11.028;2024-02-15T11:18:47;52.72;;;40.55;;
23434;SDS011;11890;45.380;11.028;2024-02-15T11:21:16;53.08;;;37.55;;
23434;SDS011;11890;45.380;11.028;2024-02-15T11:23:45;51.78;;;38.03;;
23434;SDS011;11890;45.380;11.028;2024-02-15T11:28:59;51.78;;;36.65;;
23434;SDS011;11890;45.380;11.028;2024-02-15T11:32:34;51.15;;;37.95;;
23434;SDS011;11890;45.380;11.028;2024-02-15T11:37:01;46.53;;;35.38;;
23434;SDS011;11890;45.380;11.028;2024-02-15T11:39:41;54.95;;;35.67;;
23434;SDS011;11890;45.380;11.028;2024-02-15T11:45:03;49.25;;;37.00;;
23434;SDS011;11890;45.380;11.028;2024-02-15T11:47:38;52.97;;;37.72;;
23434;SDS011;11890;45.380;11.028;2024-02-15T11:50:09;52.40;;;38.70;;
23434;SDS011;11890;45.380;11.028;2024-02-15T11:52:41;49.63;;;35.67;;
23434;SDS011;11890;45.380;11.028;2024-02-15T11:55:09;51.50;;;36.22;;
23434;SDS011;11890;45.380;11.028;2024-02-15T11:57:40;54.00;;;37.58;;
23434;SDS011;11890;45.380;11.028;2024-02-15T12:00:21;51.47;;;37.78;;
23434;SDS011;11890;45.380;11.028;2024-02-15T12:06:17;50.55;;;37.45;;
23434;SDS011;11890;45.380;11.028;2024-02-15T12:09:04;54.03;;;39.85;;
23434;SDS011;11890;45.380;11.028;2024-02-15T12:11:59;67.53;;;43.08;;
23434;SDS011;11890;45.380;11.028;2024-02-15T12:14:46;60.05;;;42.47;;
23434;SDS011;11890;45.380;11.028;2024-02-15T12:17:32;59.13;;;41.60;;
23434;SDS011;11890;45.380;11.028;2024-02-15T12:20:19;55.40;;;40.13;;
23434;SDS011;11890;45.380;11.028;2024-02-15T12:22:52;59.25;;;41.10;;
23434;SDS011;11890;45.380;11.028;2024-02-15T12:25:20;57.92;;;41.95;;
23434;SDS011;11890;45.380;11.028;2024-02-15T12:27:55;58.17;;;40.53;;
23434;SDS011;11890;45.380;11.028;2024-02-15T12:30:23;59.22;;;42.78;;
23434;SDS011;11890;45.380;11.028;2024-02-15T12:32:52;63.22;;;42.72;;
23434;SDS011;11890;45.380;11.028;2024-02-15T12:35:21;57.03;;;41.83;;
23434;SDS011;11890;45.380;11.028;2024-02-15T12:40:29;54.58;;;40.05;;
23434;SDS011;11890;45.380;11.028;2024-02-15T12:42:57;54.13;;;41.72;;
23434;SDS011;11890;45.380;11.028;2024-02-15T12:45:26;56.80;;;41.15;;
23434;SDS011;11890;45.380;11.028;2024-02-15T12:47:55;52.13;;;39.83;;
23434;SDS011;11890;45.380;11.028;2024-02-15T12:50:23;58.72;;;40.15;;
23434;SDS011;11890;45.380;11.028;2024-02-15T12:52:51;51.92;;;39.08;;
23434;SDS011;11890;45.380;11.028;2024-02-15T12:55:21;54.00;;;40.00;;
23434;SDS011;11890;45.380;11.028;2024-02-15T12:57:51;56.55;;;39.55;;
23434;SDS011;11890;45.380;11.028;2024-02-15T13:00:21;55.10;;;38.53;;
23434;SDS011;11890;45.380;11.028;2024-02-15T13:02:50;53.88;;;40.22;;
23434;SDS011;11890;45.380;11.028;2024-02-15T13:05:19;54.22;;;41.00;;
23434;SDS011;11890;45.380;11.028;2024-02-15T13:07:50;52.90;;;39.63;;
23434;SDS011;11890;45.380;11.028;2024-02-15T13:10:18;57.25;;;40.38;;
23434;SDS011;11890;45.380;11.028;2024-02-15T13:12:46;54.00;;;40.58;;
23434;SDS011;11890;45.380;11.028;2024-02-15T13:15:15;53.63;;;38.97;;
23434;SDS011;11890;45.380;11.028;2024-02-15T13:17:44;55.53;;;40.08;;
23434;SDS011;11890;45.380;11.028;2024-02-15T13:20:13;56.38;;;39.45;;
23434;SDS011;11890;45.380;11.028;2024-02-15T13:22:42;58.22;;;39.78;;
23434;SDS011;11890;45.380;11.028;2024-02-15T13:25:10;59.60;;;40.67;;
23434;SDS011;11890;45.380;11.028;2024-02-15T13:27:38;58.35;;;40.22;;
23434;SDS011;11890;45.380;11.028;2024-02-15T13:30:06;54.42;;;39.67;;
23434;SDS011;11890;45.380;11.028;2024-02-15T13:32:41;53.80;;;39.58;;
23434;SDS011;11890;45.380;11.028;2024-02-15T13:35:09;56.15;;;40.35;;
23434;SDS011;11890;45.380;11.028;2024-02-15T13:37:41;55.85;;;39.45;;
23434;SDS011;11890;45.380;11.028;2024-02-15T13:40:10;57.47;;;40.35;;
23434;SDS011;11890;45.380;11.028;2024-02-15T13:42:44;59.63;;;39.28;;
23434;SDS011;11890;45.380;11.028;2024-02-15T13:45:22;56.35;;;40.85;;
23434;SDS011;11890;45.380;11.028;2024-02-15T13:47:51;62.65;;;43.10;;
23434;SDS011;11890;45.380;11.028;2024-02-15T13:50:23;62.95;;;43.47;;
23434;SDS011;11890;45.380;11.028;2024-02-15T13:52:51;56.97;;;42.38;;
23434;SDS011;11890;45.380;11.028;2024-02-15T13:55:19;66.03;;;46.25;;
23434;SDS011;11890;45.380;11.028;2024-02-15T13:57:52;66.15;;;46.08;;
23434;SDS011;11890;45.380;11.028;2024-02-15T14:00:21;65.45;;;46.25;;
23434;SDS011;11890;45.380;11.028;2024-02-15T14:02:52;67.20;;;47.80;;
23434;SDS011;11890;45.380;11.028;2024-02-15T14:05:20;66.53;;;46.30;;
23434;SDS011;11890;45.380;11.028;2024-02-15T14:07:51;65.68;;;45.75;;
23434;SDS011;11890;45.380;11.028;2024-02-15T14:10:21;68.03;;;46.33;;
23434;SDS011;11890;45.380;11.028;2024-02-15T14:12:48;65.28;;;44.78;;
23434;SDS011;11890;45.380;11.028;2024-02-15T14:15:16;66.38;;;45.67;;
23434;SDS011;11890;45.380;11.028;2024-02-15T14:17:45;70.32;;;46.40;;
23434;SDS011;11890;45.380;11.028;2024-02-15T14:20:13;66.70;;;46.22;;
23434;SDS011;11890;45.380;11.028;2024-02-15T14:22:45;68.10;;;46.03;;
23434;SDS011;11890;45.380;11.028;2024-02-15T14:25:16;65.05;;;44.33;;
23434;SDS011;11890;45.380;11.028;2024-02-15T14:27:43;65.97;;;44.80;;
23434;SDS011;11890;45.380;11.028;2024-02-15T14:30:11;62.00;;;45.15;;
23434;SDS011;11890;45.380;11.028;2024-02-15T14:32:57;65.70;;;46.70;;
23434;SDS011;11890;45.380;11.028;2024-02-15T14:35:32;65.25;;;44.42;;
23434;SDS011;11890;45.380;11.028;2024-02-15T14:38:02;63.53;;;44.80;;
23434;SDS011;11890;45.380;11.028;2024-02-15T14:40:32;64.68;;;44.95;;
23434;SDS011;11890;45.380;11.028;2024-02-15T14:43:03;61.13;;;44.53;;
23434;SDS011;11890;45.380;11.028;2024-02-15T14:45:31;65.15;;;44.05;;
23434;SDS011;11890;45.380;11.028;2024-02-15T14:48:02;68.07;;;45.20;;
23434;SDS011;11890;45.380;11.028;2024-02-15T14:50:30;64.70;;;44.20;;
23434;SDS011;11890;45.380;11.028;2024-02-15T14:52:57;63.20;;;44.00;;